Time;durP1;ratioP1;P1;durP2;ratioP2;P2;SDS_P1;SDS_P2;PMS_P1;PMS_P2;Temp;Humidity;BMP_temperature;BMP_pressure;BME280_temperature;BME280_humidity;BME280_pressure;Samples;Min_cycle;Max_cycle;Signal;HPM_P1;HPM_P2
2024/01/04 00:00:34;;;;;;;1.40;1.15;;;22.40;43.00;;;;;;5117656;27;20024;-29
2024/01/04 00:03:00;;;;;;;1.73;1.30;;;22.40;42.90;;;;;;5109995;28;20032;-31
2024/01/04 00:05:27;;;;;;;1.80;1.10;;;22.50;42.80;;;;;;5114787;28;20079;-30
2024/01/04 00:07:53;;;;;;;1.25;1.10;;;22.70;42.60;;;;;;5112601;28;20119;-31
2024/01/04 00:10:19;;;;;;;1.30;1.20;;;22.80;42.60;;;;;;5120866;28;20031;-34
2024/01/04 00:12:47;;;;;;;2.15;1.17;;;22.70;42.70;;;;;;5116695;28;20028;-31
2024/01/04 00:15:13;;;;;;;2.65;1.40;;;22.60;42.80;;;;;;5119132;27;20095;-31
2024/01/04 00:17:39;;;;;;;2.08;1.27;;;22.50;42.90;;;;;;5121258;28;20109;-32
2024/01/04 00:20:06;;;;;;;1.35;1.17;;;22.40;42.90;;;;;;5121780;28;20079;-30
2024/01/04 00:22:32;;;;;;;1.38;1.08;;;22.40;42.80;;;;;;5111860;28;20062;-34
2024/01/04 00:24:59;;;;;;;1.45;1.10;;;22.40;42.90;;;;;;5123429;27;20031;-35
2024/01/04 00:27:25;;;;;;;1.70;1.08;;;22.40;43.00;;;;;;5117156;27;20089;-31
2024/01/04 00:29:51;;;;;;;1.50;1.02;;;22.40;43.10;;;;;;5114974;27;20062;-31
2024/01/04 00:32:17;;;;;;;2.03;1.40;;;22.30;43.10;;;;;;5096312;28;20091;-32
2024/01/04 00:34:43;;;;;;;1.50;1.13;;;22.20;43.10;;;;;;5119778;28;20051;-30
2024/01/04 00:37:09;;;;;;;3.95;1.40;;;22.30;43.00;;;;;;5122732;27;20042;-30
2024/01/04 00:39:35;;;;;;;1.58;1.30;;;22.50;43.00;;;;;;5121652;28;20032;-35
2024/01/04 00:42:04;;;;;;;1.83;1.30;;;22.60;42.80;;;;;;5110209;28;20024;-31
2024/01/04 00:44:31;;;;;;;2.78;1.40;;;22.70;42.70;;;;;;5120284;28;20030;-33
2024/01/04 00:46:57;;;;;;;1.73;1.13;;;22.80;43.20;;;;;;5104236;28;20046;-33
2024/01/04 00:49:23;;;;;;;1.60;1.33;;;22.90;42.60;;;;;;5124320;27;20030;-32
2024/01/04 00:51:49;;;;;;;1.60;1.30;;;23.00;42.90;;;;;;5098878;28;20070;-33
2024/01/04 00:54:15;;;;;;;1.83;1.50;;;23.10;42.30;;;;;;5121906;28;20031;-32
2024/01/04 00:56:41;;;;;;;2.30;1.58;;;23.10;42.30;;;;;;5111115;27;20039;-30
2024/01/04 00:59:07;;;;;;;1.77;1.33;;;23.00;42.40;;;;;;5120893;27;20032;-34
2024/01/04 01:01:33;;;;;;;1.80;1.60;;;22.90;42.90;;;;;;5110717;28;20028;-31
2024/01/04 01:04:00;;;;;;;2.42;2.00;;;22.80;42.70;;;;;;5106476;28;20085;-31
2024/01/04 01:06:27;;;;;;;2.15;1.80;;;22.80;42.90;;;;;;5117040;28;20019;-30
2024/01/04 01:08:53;;;;;;;1.58;1.40;;;22.70;42.90;;;;;;5091361;28;20040;-33
2024/01/04 01:11:19;;;;;;;2.50;1.75;;;22.60;42.70;;;;;;5114359;28;20032;-33
2024/01/04 01:13:45;;;;;;;2.13;1.50;;;22.70;42.80;;;;;;5112529;28;20046;-33
2024/01/04 01:16:11;;;;;;;3.85;1.50;;;22.60;42.90;;;;;;5110550;28;20051;-32
2024/01/04 01:18:41;;;;;;;5.15;1.67;;;22.50;42.90;;;;;;5112749;28;20030;-30
2024/01/04 01:21:07;;;;;;;2.78;1.80;;;22.50;43.00;;;;;;5108149;28;20088;-32
2024/01/04 01:23:33;;;;;;;2.60;1.60;;;22.50;43.00;;;;;;5110767;28;20019;-36
2024/01/04 01:26:02;;;;;;;2.15;1.65;;;22.60;42.70;;;;;;5116412;28;20047;-32
2024/01/04 01:28:29;;;;;;;2.47;1.60;;;22.70;42.70;;;;;;5112259;28;20028;-33
2024/01/04 01:30:55;;;;;;;3.90;1.77;;;22.80;42.80;;;;;;5127560;27;20023;-31
2024/01/04 01:33:21;;;;;;;2.05;1.60;;;22.70;42.70;;;;;;5109101;28;20028;-32
2024/01/04 01:35:48;;;;;;;3.65;1.70;;;22.70;43.40;;;;;;5111386;28;20084;-31
2024/01/04 01:38:14;;;;;;;1.98;1.58;;;22.60;42.90;;;;;;5097269;28;20053;-31
2024/01/04 01:40:41;;;;;;;2.95;1.60;;;22.50;43.00;;;;;;5109785;28;20038;-32
2024/01/04 01:43:07;;;;;;;2.13;1.77;;;22.50;43.00;;;;;;5106991;28;20032;-34
2024/01/04 01:45:33;;;;;;;2.80;1.70;;;22.50;43.00;;;;;;5109562;28;20050;-33
2024/01/04 01:47:59;;;;;;;3.10;1.67;;;22.50;43.10;;;;;;5111463;28;20299;-33
2024/01/04 01:50:26;;;;;;;3.10;1.77;;;22.40;43.20;;;;;;5110642;28;20047;-31
2024/01/04 01:52:52;;;;;;;2.53;1.73;;;22.40;43.30;;;;;;5111417;28;20034;-32
2024/01/04 01:55:19;;;;;;;2.67;2.08;;;22.40;43.20;;;;;;5115621;27;20065;-32
2024/01/04 01:57:45;;;;;;;2.15;1.52;;;22.50;43.10;;;;;;5116789;28;20038;-29
2024/01/04 02:00:13;;;;;;;2.25;1.60;;;22.60;43.00;;;;;;5089383;28;20507;-30
2024/01/04 02:02:39;;;;;;;2.35;1.60;;;22.80;42.90;;;;;;5111589;28;20040;-33
2024/01/04 02:05:07;;;;;;;2.13;1.52;;;22.90;42.60;;;;;;5124798;27;20027;-30
2024/01/04 02:07:33;;;;;;;1.90;1.48;;;22.90;42.50;;;;;;5109466;28;20196;-31
2024/01/04 02:10:00;;;;;;;1.73;1.35;;;23.00;42.60;;;;;;5111885;28;20061;-31
2024/01/04 02:12:26;;;;;;;2.03;1.55;;;23.10;42.50;;;;;;5112258;27;20032;-30
2024/01/04 02:14:54;;;;;;;4.35;1.70;;;23.10;42.40;;;;;;5117839;28;20073;-31
2024/01/04 02:17:24;;;;;;;2.92;1.63;;;23.10;42.40;;;;;;5113690;28;20117;-33
2024/01/04 02:19:50;;;;;;;2.20;1.60;;;23.10;42.50;;;;;;5096367;28;20187;-32
2024/01/04 02:22:17;;;;;;;2.55;1.98;;;23.00;42.70;;;;;;5095272;28;20049;-32
2024/01/04 02:24:44;;;;;;;2.25;1.55;;;22.90;42.80;;;;;;5118640;28;20036;-30
2024/01/04 02:27:11;;;;;;;2.78;1.80;;;22.80;42.90;;;;;;5110223;28;20062;-31
2024/01/04 02:29:38;;;;;;;2.70;1.70;;;22.70;42.90;;;;;;5107807;27;20061;-35
2024/01/04 02:32:04;;;;;;;2.70;1.60;;;22.70;42.80;;;;;;5110153;27;20035;-35
2024/01/04 02:34:30;;;;;;;3.08;1.90;;;22.70;42.90;;;;;;5081032;28;20051;-33
2024/01/04 02:36:57;;;;;;;2.70;1.90;;;22.70;42.90;;;;;;5111752;28;20036;-30
2024/01/04 02:39:23;;;;;;;2.38;1.75;;;22.60;43.00;;;;;;5113616;28;20039;-33
2024/01/04 02:41:50;;;;;;;1.98;1.58;;;22.60;43.10;;;;;;5094870;28;20032;-33
2024/01/04 02:44:16;;;;;;;2.10;1.88;;;22.50;43.10;;;;;;5116489;28;20036;-34
2024/01/04 02:46:42;;;;;;;2.38;1.70;;;22.60;43.10;;;;;;5113597;28;20034;-32
2024/01/04 02:49:08;;;;;;;3.13;1.80;;;22.70;42.90;;;;;;5108509;28;20092;-31
2024/01/04 02:51:34;;;;;;;3.15;2.20;;;22.80;42.70;;;;;;5113979;28;20069;-31
2024/01/04 02:54:01;;;;;;;2.55;1.60;;;23.00;42.60;;;;;;5108179;28;20053;-30
2024/01/04 02:56:27;;;;;;;2.00;1.52;;;23.00;42.50;;;;;;5106111;28;20032;-29
2024/01/04 02:58:53;;;;;;;2.00;1.80;;;23.10;42.40;;;;;;5103131;28;20032;-30
2024/01/04 03:01:20;;;;;;;2.42;1.50;;;23.20;42.30;;;;;;5113999;28;20074;-32
2024/01/04 03:03:48;;;;;;;2.35;1.50;;;23.20;42.40;;;;;;5116436;28;20028;-31
2024/01/04 03:06:14;;;;;;;3.33;1.65;;;23.20;42.60;;;;;;5114849;28;20023;-33
2024/01/04 03:08:41;;;;;;;5.07;1.80;;;23.10;42.50;;;;;;5111599;28;20043;-34
2024/01/04 03:11:07;;;;;;;1.92;1.70;;;23.00;42.20;;;;;;5116863;28;20048;-33
2024/01/04 03:13:33;;;;;;;2.92;1.83;;;22.90;42.50;;;;;;5109317;28;20031;-31
2024/01/04 03:15:59;;;;;;;2.10;1.75;;;22.80;42.40;;;;;;5115843;28;20095;-30
2024/01/04 03:18:25;;;;;;;1.58;1.38;;;22.90;42.50;;;;;;5124563;27;20039;-33
2024/01/04 03:20:52;;;;;;;3.70;1.60;;;22.90;42.40;;;;;;5116533;28;20023;-30
2024/01/04 03:23:18;;;;;;;2.78;1.70;;;22.80;42.40;;;;;;5096932;28;20027;-31
2024/01/04 03:25:44;;;;;;;2.15;1.70;;;22.80;42.50;;;;;;5118765;28;20038;-33
2024/01/04 03:28:10;;;;;;;1.98;1.70;;;22.70;42.60;;;;;;5120089;28;20052;-31
2024/01/04 03:30:36;;;;;;;2.65;1.58;;;22.60;42.70;;;;;;5113121;28;20028;-30
2024/01/04 03:33:03;;;;;;;2.55;1.65;;;22.60;42.80;;;;;;5122343;28;20024;-34
2024/01/04 03:35:29;;;;;;;2.13;1.48;;;22.80;42.70;;;;;;5098220;28;20054;-34
2024/01/04 03:37:55;;;;;;;2.53;1.70;;;22.90;42.50;;;;;;5114228;28;20078;-32
2024/01/04 03:40:21;;;;;;;1.92;1.35;;;23.00;42.40;;;;;;5124243;27;20461;-32
2024/01/04 03:42:47;;;;;;;2.13;1.60;;;23.00;42.30;;;;;;5117462;28;20053;-32
2024/01/04 03:45:14;;;;;;;2.63;1.65;;;23.10;42.30;;;;;;5112884;28;20031;-34
2024/01/04 03:47:40;;;;;;;2.22;1.80;;;23.10;42.20;;;;;;5110346;27;20042;-30
2024/01/04 03:50:06;;;;;;;1.67;1.55;;;23.20;42.00;;;;;;5111490;28;20032;-33
2024/01/04 03:52:32;;;;;;;2.17;1.70;;;23.20;42.10;;;;;;5095297;28;20091;-31
2024/01/04 03:54:59;;;;;;;1.67;1.58;;;23.10;42.20;;;;;;5117037;27;20036;-32
2024/01/04 03:57:25;;;;;;;1.80;1.60;;;23.00;42.30;;;;;;5095490;28;20031;-32
2024/01/04 03:59:51;;;;;;;2.25;1.80;;;22.90;42.50;;;;;;5114529;27;20047;-33
2024/01/04 04:02:17;;;;;;;1.97;1.40;;;22.80;42.50;;;;;;5111855;28;20056;-31
2024/01/04 04:04:44;;;;;;;3.60;1.80;;;22.80;42.60;;;;;;5112881;28;20028;-30
2024/01/04 04:07:10;;;;;;;3.10;2.00;;;22.80;42.60;;;;;;5121291;28;20043;-34
2024/01/04 04:09:36;;;;;;;1.80;1.52;;;22.80;42.60;;;;;;5115323;28;20038;-34
2024/01/04 04:12:02;;;;;;;2.92;1.88;;;22.80;42.80;;;;;;5114603;28;20023;-31
2024/01/04 04:14:29;;;;;;;4.33;1.70;;;22.70;42.90;;;;;;5114174;28;20024;-29
2024/01/04 04:16:55;;;;;;;1.65;1.50;;;22.60;42.90;;;;;;5114518;28;20036;-33
2024/01/04 04:19:21;;;;;;;3.28;1.52;;;22.50;43.00;;;;;;5119605;28;20039;-33
2024/01/04 04:21:48;;;;;;;1.60;1.40;;;22.50;43.00;;;;;;5112618;27;20056;-31
2024/01/04 04:24:14;;;;;;;1.55;1.33;;;22.70;42.90;;;;;;5114927;27;20032;-30
2024/01/04 04:26:40;;;;;;;1.90;1.52;;;22.80;42.70;;;;;;5115684;27;20095;-30
2024/01/04 04:29:06;;;;;;;1.70;1.30;;;22.90;42.50;;;;;;5122328;28;20032;-32
2024/01/04 04:31:32;;;;;;;1.83;1.33;;;23.10;42.40;;;;;;5118247;27;20032;-31
2024/01/04 04:33:58;;;;;;;1.52;1.20;;;23.10;42.40;;;;;;5090354;28;20027;-32
2024/01/04 04:36:25;;;;;;;1.95;1.42;;;23.20;42.30;;;;;;5118202;28;20031;-32
2024/01/04 04:38:51;;;;;;;1.90;1.45;;;23.30;42.10;;;;;;5098421;27;20024;-32
2024/01/04 04:41:17;;;;;;;2.97;1.48;;;23.30;42.30;;;;;;5114579;27;20028;-32
2024/01/04 04:43:43;;;;;;;1.85;1.50;;;23.20;42.40;;;;;;5117599;28;20027;-33
2024/01/04 04:46:11;;;;;;;1.80;1.40;;;23.10;42.60;;;;;;5113406;27;20028;-32
2024/01/04 04:48:37;;;;;;;2.50;1.60;;;23.00;42.70;;;;;;5107928;28;20105;-35
2024/01/04 04:51:03;;;;;;;1.95;1.60;;;22.90;42.80;;;;;;5113897;28;20041;-34
2024/01/04 04:53:29;;;;;;;2.08;1.50;;;22.80;42.80;;;;;;5116346;27;20024;-30
2024/01/04 04:55:56;;;;;;;1.95;1.50;;;22.80;42.70;;;;;;5110368;27;20020;-34
2024/01/04 04:58:22;;;;;;;1.60;1.50;;;22.80;42.90;;;;;;5109248;27;20095;-33
2024/01/04 05:00:48;;;;;;;1.40;1.30;;;22.80;43.00;;;;;;5113557;27;20058;-32
2024/01/04 05:03:14;;;;;;;2.80;1.80;;;22.70;43.10;;;;;;5112107;28;20024;-31
2024/01/04 05:05:40;;;;;;;1.88;1.30;;;22.60;43.20;;;;;;5115959;28;20032;-34
2024/01/04 05:08:07;;;;;;;1.85;1.33;;;22.60;43.30;;;;;;5111720;27;20036;-33
2024/01/04 05:10:33;;;;;;;1.83;1.57;;;22.60;43.20;;;;;;5118639;28;20030;-31
2024/01/04 05:12:59;;;;;;;1.40;1.20;;;22.70;43.00;;;;;;5121597;27;20283;-34
2024/01/04 05:15:26;;;;;;;1.60;1.30;;;22.90;42.80;;;;;;5117504;28;20020;-29
2024/01/04 05:17:53;;;;;;;1.20;1.00;;;23.00;42.60;;;;;;5111034;28;20497;-28
2024/01/04 05:20:20;;;;;;;1.50;1.20;;;23.10;42.50;;;;;;5111483;28;20060;-33
2024/01/04 05:22:46;;;;;;;2.53;1.25;;;23.20;42.50;;;;;;5120051;28;20032;-34
2024/01/04 05:25:12;;;;;;;1.80;1.40;;;23.30;42.50;;;;;;5114816;28;20050;-30
2024/01/04 05:27:39;;;;;;;1.50;1.40;;;23.30;42.40;;;;;;5118456;27;20095;-34
2024/01/04 05:30:08;;;;;;;1.70;1.40;;;23.20;42.50;;;;;;5115716;28;20027;-29
2024/01/04 05:32:34;;;;;;;1.63;1.23;;;23.20;42.70;;;;;;5109151;28;20036;-34
2024/01/04 05:35:01;;;;;;;1.77;1.35;;;23.10;42.80;;;;;;5114144;28;20027;-33
2024/01/04 05:37:27;;;;;;;1.50;1.15;;;22.90;42.80;;;;;;5112971;27;20040;-28
2024/01/04 05:39:53;;;;;;;1.30;1.20;;;22.80;42.90;;;;;;5113161;27;20036;-30
2024/01/04 05:42:19;;;;;;;3.00;1.30;;;22.80;42.90;;;;;;5115975;28;20110;-29
2024/01/04 05:44:45;;;;;;;1.40;1.10;;;22.80;42.90;;;;;;5110499;28;20051;-33
2024/01/04 05:47:11;;;;;;;1.75;1.10;;;22.80;42.90;;;;;;5107433;28;20028;-29
2024/01/04 05:49:38;;;;;;;1.95;1.40;;;22.70;43.00;;;;;;5109428;27;20032;-32
2024/01/04 05:52:04;;;;;;;1.67;1.35;;;22.70;43.10;;;;;;5116174;27;20130;-33
2024/01/04 05:54:31;;;;;;;2.10;1.47;;;22.70;42.90;;;;;;5110820;27;20089;-30
2024/01/04 05:56:57;;;;;;;1.85;1.50;;;22.80;42.70;;;;;;5116932;27;20058;-30
2024/01/04 05:59:24;;;;;;;2.05;1.27;;;22.90;42.30;;;;;;5110903;28;20058;-32
2024/01/04 06:01:51;;;;;;;1.20;1.10;;;23.00;42.10;;;;;;5112614;28;20754;-31
2024/01/04 06:04:17;;;;;;;1.85;1.30;;;23.10;42.20;;;;;;5107439;28;20024;-32
2024/01/04 06:06:44;;;;;;;1.23;1.13;;;23.20;42.10;;;;;;5107758;28;20032;-32
2024/01/04 06:09:10;;;;;;;2.47;1.27;;;23.30;42.10;;;;;;5118192;28;20555;-31
2024/01/04 06:11:39;;;;;;;1.50;1.00;;;23.30;42.00;;;;;;5110564;27;20030;-33
2024/01/04 06:14:06;;;;;;;2.15;1.15;;;23.40;42.00;;;;;;5110120;28;20901;-32
2024/01/04 06:16:32;;;;;;;2.22;1.08;;;23.50;41.90;;;;;;5107151;28;20056;-29
2024/01/04 06:18:58;;;;;;;2.65;1.23;;;23.60;42.00;;;;;;5110740;28;20119;-30
2024/01/04 06:21:25;;;;;;;2.80;1.10;;;23.60;41.90;;;;;;5116483;28;20034;-28
2024/01/04 06:23:51;;;;;;;3.20;0.90;;;23.60;41.90;;;;;;5110787;27;20389;-33
2024/01/04 06:26:18;;;;;;;3.75;1.10;;;23.70;41.90;;;;;;5097115;27;20090;-31
2024/01/04 06:28:45;;;;;;;1.33;1.08;;;23.80;41.70;;;;;;5120688;27;20070;-31
2024/01/04 06:31:11;;;;;;;1.73;1.03;;;23.80;41.60;;;;;;5116887;28;20023;-31
2024/01/04 06:33:37;;;;;;;1.53;1.20;;;23.90;41.60;;;;;;5110826;28;20287;-30
2024/01/04 06:36:05;;;;;;;4.15;1.27;;;23.90;41.60;;;;;;5106195;28;20113;-28
2024/01/04 06:38:31;;;;;;;1.33;1.00;;;24.00;41.60;;;;;;5112083;28;20020;-30
2024/01/04 06:40:58;;;;;;;1.40;0.95;;;24.00;41.60;;;;;;5088908;28;20035;-33
2024/01/04 06:43:25;;;;;;;1.30;1.10;;;24.10;41.30;;;;;;5109498;28;20024;-31
2024/01/04 06:45:51;;;;;;;2.38;1.25;;;24.10;41.30;;;;;;5113602;28;20599;-32
2024/01/04 06:48:17;;;;;;;2.50;1.20;;;24.10;41.20;;;;;;5114411;28;20129;-31
2024/01/04 06:50:43;;;;;;;1.20;1.10;;;24.20;41.00;;;;;;5115510;28;20043;-34
2024/01/04 06:53:14;;;;;;;2.13;1.00;;;24.20;41.00;;;;;;5107039;28;20579;-33
2024/01/04 06:55:41;;;;;;;1.10;1.00;;;24.30;41.10;;;;;;5109950;28;20031;-34
2024/01/04 06:58:09;;;;;;;1.38;1.10;;;24.30;41.00;;;;;;5111765;28;20032;-35
2024/01/04 07:00:36;;;;;;;1.23;0.85;;;24.40;41.00;;;;;;5110155;28;20026;-32
2024/01/04 07:03:02;;;;;;;1.35;1.15;;;24.40;40.90;;;;;;5112004;28;20028;-32
2024/01/04 07:05:29;;;;;;;1.10;0.90;;;24.40;40.50;;;;;;5116470;28;20103;-33
2024/01/04 07:07:55;;;;;;;1.20;1.10;;;24.50;40.60;;;;;;5090186;28;20036;-31
2024/01/04 07:10:21;;;;;;;2.20;1.30;;;24.50;41.40;;;;;;5119554;28;20069;-32
2024/01/04 07:12:47;;;;;;;1.70;1.30;;;24.60;40.80;;;;;;5110276;28;20028;-32
2024/01/04 07:15:14;;;;;;;1.57;1.00;;;24.60;40.70;;;;;;5098676;28;20027;-31
2024/01/04 07:17:40;;;;;;;1.40;1.10;;;24.60;40.00;;;;;;5111018;28;20100;-34
2024/01/04 07:20:06;;;;;;;1.65;1.05;;;24.60;40.10;;;;;;5093575;28;20058;-33
2024/01/04 07:22:33;;;;;;;1.48;1.10;;;24.60;40.20;;;;;;5113062;28;20028;-35
2024/01/04 07:24:59;;;;;;;2.05;1.20;;;24.70;40.30;;;;;;5113207;28;20032;-34
2024/01/04 07:27:27;;;;;;;1.63;1.10;;;24.70;40.30;;;;;;5110071;28;20044;-33
2024/01/04 07:29:54;;;;;;;1.52;0.90;;;24.80;40.10;;;;;;5112235;28;20035;-30
2024/01/04 07:32:21;;;;;;;2.05;1.33;;;24.80;40.10;;;;;;5112679;28;20080;-32
2024/01/04 07:34:47;;;;;;;1.80;1.03;;;24.80;40.10;;;;;;5108885;28;20038;-34
2024/01/04 07:37:13;;;;;;;1.70;1.05;;;24.90;40.10;;;;;;5112000;28;20802;-32
2024/01/04 07:39:40;;;;;;;1.57;1.00;;;24.90;40.10;;;;;;5112829;28;20036;-35
2024/01/04 07:42:07;;;;;;;;;;;24.90;40.10;;;;;;5113934;28;20332;-31
2024/01/04 07:44:33;;;;;;;1.65;1.10;;;25.00;40.60;;;;;;5110686;28;19907;-34
2024/01/04 07:46:59;;;;;;;1.50;1.20;;;25.00;40.00;;;;;;5113776;28;20114;-32
2024/01/04 07:49:25;;;;;;;1.98;1.17;;;25.00;39.90;;;;;;5108531;28;20054;-33
2024/01/04 07:51:52;;;;;;;1.58;1.20;;;25.00;39.80;;;;;;5106238;28;20035;-33
2024/01/04 07:54:19;;;;;;;1.17;0.85;;;25.00;39.70;;;;;;5090925;28;20020;-32
2024/01/04 07:56:45;;;;;;;2.85;1.00;;;25.10;39.80;;;;;;5114261;28;20035;-31
2024/01/04 07:59:11;;;;;;;2.17;1.20;;;25.10;39.80;;;;;;5115259;27;20036;-33
2024/01/04 08:01:37;;;;;;;1.35;1.00;;;25.10;39.80;;;;;;5117675;28;20098;-33
2024/01/04 08:04:06;;;;;;;1.77;1.00;;;25.10;39.70;;;;;;5094349;28;20097;-35
2024/01/04 08:06:32;;;;;;;1.58;1.10;;;25.20;39.70;;;;;;5121740;28;20272;-34
2024/01/04 08:08:58;;;;;;;1.98;1.20;;;25.20;39.40;;;;;;5113114;28;20581;-34
2024/01/04 08:11:24;;;;;;;1.92;1.10;;;25.20;39.50;;;;;;5113070;28;20133;-31
2024/01/04 08:13:51;;;;;;;1.53;1.20;;;25.30;39.50;;;;;;5114525;28;20070;-32
2024/01/04 08:16:18;;;;;;;1.75;1.30;;;25.30;39.40;;;;;;5112420;28;20090;-33
2024/01/04 08:18:44;;;;;;;2.33;1.00;;;25.20;39.40;;;;;;5119662;28;20023;-36
2024/01/04 08:21:11;;;;;;;1.27;1.10;;;25.20;39.30;;;;;;5120701;28;20101;-32
2024/01/04 08:23:41;;;;;;;1.80;1.27;;;25.30;39.80;;;;;;5113076;28;20020;-31
2024/01/04 08:26:07;;;;;;;3.65;1.73;;;25.20;39.80;;;;;;5118512;27;20031;-34
2024/01/04 08:28:33;;;;;;;2.47;1.30;;;25.00;39.70;;;;;;5098562;28;20028;-32
2024/01/04 08:30:59;;;;;;;1.50;1.30;;;24.90;39.90;;;;;;5119626;27;20023;-35
2024/01/04 08:33:25;;;;;;;4.95;1.35;;;24.80;39.80;;;;;;5120131;27;20272;-34
2024/01/04 08:35:52;;;;;;;3.45;1.30;;;24.70;39.80;;;;;;5115420;27;20030;-34
2024/01/04 08:38:18;;;;;;;1.33;1.10;;;24.60;39.70;;;;;;5123592;27;20022;-36
2024/01/04 08:40:44;;;;;;;1.70;1.30;;;24.50;39.90;;;;;;5114119;27;20027;-34
2024/01/04 08:43:10;;;;;;;2.22;1.20;;;24.40;40.00;;;;;;5119137;27;20031;-33
2024/01/04 08:45:36;;;;;;;4.93;1.40;;;24.30;40.10;;;;;;5119338;27;20538;-35
2024/01/04 08:48:03;;;;;;;2.03;1.48;;;24.30;40.00;;;;;;5118623;27;20035;-31
2024/01/04 08:50:29;;;;;;;1.58;1.45;;;24.20;40.10;;;;;;5118274;28;20059;-32
2024/01/04 08:52:55;;;;;;;1.80;1.30;;;24.10;40.10;;;;;;5119511;27;20042;-35
2024/01/04 08:55:22;;;;;;;4.03;1.60;;;24.00;40.20;;;;;;5121856;27;20095;-31
2024/01/04 08:57:48;;;;;;;1.10;1.00;;;23.90;40.30;;;;;;5122846;27;20369;-33
2024/01/04 09:00:14;;;;;;;1.73;1.40;;;23.80;40.60;;;;;;5118775;27;20039;-35
2024/01/04 09:02:42;;;;;;;1.40;1.30;;;23.80;40.40;;;;;;5111808;27;20468;-34
2024/01/04 09:05:09;;;;;;;2.38;1.30;;;23.70;40.10;;;;;;5118248;28;20044;-36
2024/01/04 09:07:35;;;;;;;1.65;1.17;;;23.70;40.30;;;;;;5114129;28;20052;-35
2024/01/04 09:10:01;;;;;;;1.83;1.38;;;23.60;40.50;;;;;;5116146;28;20122;-30
2024/01/04 09:12:27;;;;;;;3.28;1.80;;;23.50;40.60;;;;;;5108523;28;20024;-35
2024/01/04 09:14:53;;;;;;;1.63;1.45;;;23.40;40.70;;;;;;5109488;28;20032;-32
2024/01/04 09:17:20;;;;;;;1.67;1.40;;;23.40;40.60;;;;;;5119509;28;20024;-36
2024/01/04 09:19:52;;;;;;;1.60;1.30;;;23.30;40.60;;;;;;5116002;27;20040;-32
2024/01/04 09:22:18;;;;;;;1.95;1.55;;;23.30;40.70;;;;;;5112975;28;20028;-35
2024/01/04 09:24:44;;;;;;;1.80;1.65;;;23.20;41.40;;;;;;5112816;27;20027;-32
2024/01/04 09:27:12;;;;;;;3.13;1.37;;;23.10;41.00;;;;;;5118747;27;20051;-35
2024/01/04 09:29:39;;;;;;;2.35;1.60;;;23.10;41.10;;;;;;5117176;27;20107;-30
2024/01/04 09:32:05;;;;;;;1.67;1.37;;;23.00;41.10;;;;;;5116206;27;20044;-32
2024/01/04 09:34:31;;;;;;;1.30;1.20;;;22.90;40.80;;;;;;5119307;27;20048;-31
2024/01/04 09:36:57;;;;;;;2.05;1.58;;;22.90;41.00;;;;;;5112679;28;20086;-32
2024/01/04 09:39:24;;;;;;;1.33;1.20;;;22.90;41.10;;;;;;5115297;27;20024;-36
2024/01/04 09:41:50;;;;;;;1.40;1.15;;;23.10;41.00;;;;;;5117182;27;20043;-35
2024/01/04 09:44:17;;;;;;;1.93;1.40;;;23.20;41.00;;;;;;5099024;28;20027;-30
2024/01/04 09:46:43;;;;;;;5.07;1.42;;;23.20;41.00;;;;;;5113132;28;20957;-34
2024/01/04 09:49:11;;;;;;;2.78;1.15;;;23.10;40.80;;;;;;5116200;27;20047;-33
2024/01/04 09:51:38;;;;;;;1.77;1.50;;;23.10;41.00;;;;;;5107597;27;20075;-32
2024/01/04 09:54:05;;;;;;;;;;;23.00;41.10;;;;;;5124328;27;20107;-35
2024/01/04 09:56:34;;;;;;;1.65;1.45;;;22.90;41.20;;;;;;5111149;27;19986;-34
2024/01/04 09:59:00;;;;;;;2.00;1.50;;;22.80;41.30;;;;;;5091164;28;20063;-34
2024/01/04 10:01:35;;;;;;;1.58;1.48;;;22.70;41.40;;;;;;5116689;28;20365;-35
2024/01/04 10:04:19;;;;;;;1.42;1.20;;;22.70;41.40;;;;;;5108664;28;20040;-33
2024/01/04 10:06:46;;;;;;;1.60;1.50;;;22.70;41.40;;;;;;5117033;27;20680;-35
2024/01/04 10:09:49;;;;;;;1.83;1.67;;;22.60;41.50;;;;;;5113109;28;20115;-34
2024/01/04 10:12:15;;;;;;;3.05;1.50;;;22.50;41.60;;;;;;5101908;28;20031;-30
2024/01/04 10:14:42;;;;;;;2.33;1.40;;;22.50;41.70;;;;;;5099579;28;20028;-33
2024/01/04 10:17:11;;;;;;;2.07;1.60;;;22.60;41.40;;;;;;5118719;27;20028;-35
2024/01/04 10:19:38;;;;;;;1.50;1.40;;;22.60;41.20;;;;;;5114835;28;20035;-33
2024/01/04 10:22:05;;;;;;;1.60;1.40;;;22.60;41.20;;;;;;5115021;28;20059;-34
2024/01/04 10:24:32;;;;;;;;;;;22.50;41.30;;;;;;5114813;28;20085;-34
2024/01/04 10:26:59;;;;;;;2.08;1.70;;;22.40;41.40;;;;;;5114288;27;19919;-33
2024/01/04 10:29:28;;;;;;;2.40;1.42;;;22.40;41.50;;;;;;5112768;28;20065;-33
2024/01/04 10:32:10;;;;;;;2.97;1.52;;;22.50;41.20;;;;;;5098506;28;20036;-35
2024/01/04 10:34:37;;;;;;;4.72;1.70;;;22.60;41.30;;;;;;5115654;28;20084;-34
2024/01/04 10:37:13;;;;;;;3.38;1.92;;;22.50;41.40;;;;;;5122048;27;20143;-35
2024/01/04 10:39:40;;;;;;;4.70;1.98;;;22.50;41.60;;;;;;5119539;28;20448;-31
2024/01/04 10:42:09;;;;;;;3.42;1.70;;;22.40;41.70;;;;;;5115117;27;20036;-33
2024/01/04 10:44:35;;;;;;;2.75;1.90;;;22.30;41.80;;;;;;5114405;28;20581;-34
2024/01/04 10:47:02;;;;;;;1.60;1.50;;;22.30;41.60;;;;;;5093820;28;20142;-34
2024/01/04 10:49:28;;;;;;;;;;;22.30;41.70;;;;;;5111091;28;20038;-35
2024/01/04 10:51:57;;;;;;;2.42;1.80;;;22.20;41.80;;;;;;5113315;27;19916;-36
2024/01/04 10:54:33;;;;;;;2.40;1.80;;;22.10;41.80;;;;;;5114327;27;20048;-33
2024/01/04 10:56:59;;;;;;;2.08;1.60;;;22.10;42.00;;;;;;5113315;28;20027;-32
2024/01/04 10:59:28;;;;;;;1.52;1.40;;;22.00;42.00;;;;;;5119213;28;20038;-33
2024/01/04 11:01:55;;;;;;;1.70;1.60;;;22.00;41.80;;;;;;5114620;28;20086;-32
2024/01/04 11:04:21;;;;;;;1.60;1.48;;;22.10;42.00;;;;;;5097477;28;20095;-34
2024/01/04 11:06:49;;;;;;;2.10;1.60;;;22.20;41.70;;;;;;5095332;28;20032;-36
2024/01/04 11:09:17;;;;;;;1.25;1.15;;;22.30;41.70;;;;;;5113227;28;20065;-33
2024/01/04 11:11:43;;;;;;;1.45;1.35;;;22.50;41.70;;;;;;5116826;28;20027;-30
2024/01/04 11:14:10;;;;;;;1.95;1.40;;;22.50;41.60;;;;;;5113673;28;20023;-36
2024/01/04 11:16:48;;;;;;;3.08;1.63;;;22.50;41.50;;;;;;5113804;28;20507;-33
2024/01/04 11:19:23;;;;;;;3.10;1.70;;;22.40;41.70;;;;;;5107497;28;20023;-30
2024/01/04 11:22:07;;;;;;;1.73;1.60;;;22.30;41.80;;;;;;5111541;28;20435;-31
2024/01/04 11:24:58;;;;;;;1.60;1.50;;;22.20;41.90;;;;;;5107905;28;20049;-33
2024/01/04 11:27:24;;;;;;;1.60;1.50;;;22.10;41.90;;;;;;5107246;28;20039;-32
2024/01/04 11:29:51;;;;;;;1.40;1.30;;;22.10;41.80;;;;;;5091891;28;20052;-31
2024/01/04 11:32:17;;;;;;;1.75;1.65;;;22.10;41.70;;;;;;5099062;28;20032;-32
2024/01/04 11:34:46;;;;;;;2.03;1.63;;;22.10;41.90;;;;;;5111145;28;20011;-34
2024/01/04 11:37:23;;;;;;;1.50;1.40;;;22.00;42.00;;;;;;5105547;28;20031;-33
2024/01/04 11:40:05;;;;;;;1.70;1.55;;;21.90;42.10;;;;;;5118780;28;20025;-36
2024/01/04 11:42:36;;;;;;;1.90;1.77;;;21.90;42.10;;;;;;5096471;28;20032;-33
2024/01/04 11:45:06;;;;;;;1.88;1.70;;;21.80;41.90;;;;;;5115877;28;20050;-33
2024/01/04 11:47:39;;;;;;;1.70;1.50;;;21.90;42.00;;;;;;5115087;27;20032;-33
2024/01/04 11:50:21;;;;;;;1.95;1.75;;;22.00;42.00;;;;;;5111146;28;20130;-31
2024/01/04 11:52:51;;;;;;;3.63;1.65;;;22.10;41.90;;;;;;5117407;27;20024;-35
2024/01/04 11:55:28;;;;;;;5.68;1.50;;;22.10;41.80;;;;;;5122700;27;20023;-34
2024/01/04 11:58:05;;;;;;;1.60;1.40;;;22.20;41.70;;;;;;5119406;27;20021;-31
2024/01/04 12:00:35;;;;;;;2.58;1.67;;;22.20;41.80;;;;;;5121860;28;20088;-33
2024/01/04 12:03:02;;;;;;;2.35;1.80;;;22.10;42.50;;;;;;5119094;28;20038;-34
2024/01/04 12:05:28;;;;;;;1.60;1.50;;;22.00;41.90;;;;;;5101184;27;20820;-31
2024/01/04 12:07:55;;;;;;;1.75;1.55;;;21.90;42.10;;;;;;5116592;28;20044;-30
2024/01/04 12:10:21;;;;;;;3.10;1.80;;;21.90;42.30;;;;;;5116635;28;20027;-33
2024/01/04 12:12:50;;;;;;;1.50;1.40;;;21.80;42.10;;;;;;5119588;28;20028;-35
2024/01/04 12:15:22;;;;;;;1.52;1.42;;;21.80;42.00;;;;;;5111762;28;20024;-31
2024/01/04 12:17:48;;;;;;;2.92;1.60;;;21.80;42.10;;;;;;5117589;27;20044;-34
2024/01/04 12:20:14;;;;;;;5.55;1.48;;;21.80;42.30;;;;;;5088834;28;20035;-35
2024/01/04 12:22:40;;;;;;;2.85;1.60;;;21.70;42.30;;;;;;5122035;27;20810;-32
2024/01/04 12:25:07;;;;;;;2.47;1.48;;;21.60;42.30;;;;;;5115171;28;20019;-30
2024/01/04 12:27:36;;;;;;;2.05;1.45;;;21.70;42.20;;;;;;5131823;27;20038;-31
2024/01/04 12:30:05;;;;;;;4.22;1.40;;;21.90;41.90;;;;;;5118772;28;20036;-33
2024/01/04 12:32:33;;;;;;;2.40;1.60;;;22.00;41.80;;;;;;5115974;27;20034;-31
2024/01/04 12:35:02;;;;;;;2.00;1.70;;;21.90;42.00;;;;;;5118256;28;20039;-30
2024/01/04 12:37:29;;;;;;;1.80;1.35;;;21.80;42.00;;;;;;5122622;27;20024;-30
2024/01/04 12:40:08;;;;;;;1.70;1.60;;;21.70;42.00;;;;;;5114728;28;20028;-33
2024/01/04 12:42:34;;;;;;;2.78;1.67;;;21.70;42.00;;;;;;5116651;27;20027;-35
2024/01/04 12:45:00;;;;;;;1.73;1.40;;;21.70;42.10;;;;;;5097692;27;20032;-32
2024/01/04 12:47:29;;;;;;;2.20;1.75;;;21.60;42.30;;;;;;5113480;27;20059;-32